createdAt,value
2019-04-10T00:00:39.142Z,10.04
2019-04-10T00:03:23.957Z,9.89
2019-04-10T00:05:44.576Z,9.95
2019-04-10T00:08:16.153Z,9.88
2019-04-10T00:10:47.959Z,9.88
2019-04-10T00:13:20.533Z,9.89
2019-04-10T00:15:52.862Z,9.78
2019-04-10T00:18:24.316Z,9.80
2019-04-10T00:20:56.623Z,9.80
2019-04-10T00:23:28.014Z,9.88
2019-04-10T00:25:59.508Z,9.92
2019-04-10T00:28:31.740Z,9.97
2019-04-10T00:31:03.332Z,9.96
2019-04-10T00:33:34.895Z,10.02
2019-04-10T00:36:06.493Z,10.02
2019-04-10T00:38:38.039Z,10.05
2019-04-10T00:41:10.181Z,9.99
2019-04-10T00:43:41.705Z,10.28
2019-04-10T00:46:13.681Z,10.30
2019-04-10T00:48:45.333Z,10.11
2019-04-10T00:51:17.256Z,10.00
2019-04-10T00:53:49.661Z,10.12
2019-04-10T00:56:21.336Z,9.94
2019-04-10T00:58:53.236Z,9.80
2019-04-10T01:01:24.816Z,9.60
2019-04-10T01:03:56.454Z,9.69
2019-04-10T01:06:28.235Z,9.77
2019-04-10T01:08:59.642Z,9.75
2019-04-10T01:11:31.268Z,9.91
2019-04-10T01:14:02.792Z,9.94
2019-04-10T01:16:34.357Z,9.87
2019-04-10T01:19:05.903Z,9.87
2019-04-10T01:21:37.484Z,9.64
2019-04-10T01:24:09.102Z,9.78
2019-04-10T01:26:40.578Z,9.60
2019-04-10T01:29:11.998Z,9.56
2019-04-10T01:31:43.596Z,9.49
2019-04-10T01:34:15.092Z,9.41
2019-04-10T01:36:46.692Z,9.54
2019-04-10T01:39:22.686Z,9.42
2019-04-10T01:41:54.453Z,9.37
2019-04-10T01:44:26.888Z,9.34
2019-04-10T01:46:59.099Z,9.36
2019-04-10T01:49:31.562Z,9.23
2019-04-10T01:52:03.317Z,9.41
2019-04-10T01:54:35.371Z,9.55
2019-04-10T01:57:06.881Z,9.48
2019-04-10T01:59:40.378Z,9.48
2019-04-10T02:02:19.457Z,9.41
2019-04-10T02:04:53.456Z,9.43
2019-04-10T02:07:26.398Z,9.38
2019-04-10T02:09:57.936Z,9.38
2019-04-10T02:12:30.388Z,9.45
2019-04-10T02:15:03.018Z,9.35
2019-04-10T02:17:34.748Z,9.29
2019-04-10T02:20:10.475Z,9.21
2019-04-10T02:22:42.380Z,9.10
2019-04-10T02:25:14.009Z,9.11
2019-04-10T02:27:46.714Z,9.15
2019-04-10T02:30:19.590Z,9.29
2019-04-10T02:32:52.856Z,9.33
2019-04-10T02:35:25.225Z,9.25
2019-04-10T02:38:00.593Z,9.14
2019-04-10T02:40:30.976Z,9.16
2019-04-10T02:43:03.307Z,9.10
2019-04-10T02:45:36.439Z,9.13
2019-04-10T02:48:09.839Z,9.23
2019-04-10T02:50:42.830Z,9.47
2019-04-10T02:53:15.382Z,9.57
2019-04-10T02:55:49.348Z,9.49
2019-04-10T02:58:22.157Z,9.20
2019-04-10T03:00:54.836Z,9.18
2019-04-10T03:03:27.615Z,9.08
2019-04-10T03:06:00.345Z,9.30
2019-04-10T03:08:49.432Z,9.38
2019-04-10T03:11:09.278Z,9.30
2019-04-10T03:13:38.686Z,9.27
2019-04-10T03:16:11.705Z,9.14
2019-04-10T03:18:43.445Z,9.26
2019-04-10T03:21:15.340Z,9.33
2019-04-10T03:23:47.565Z,9.34
2019-04-10T03:26:19.524Z,9.59
2019-04-10T03:28:51.451Z,9.63
2019-04-10T03:31:24.711Z,9.62
2019-04-10T03:34:01.012Z,9.70
2019-04-10T03:36:38.067Z,9.83
2019-04-10T03:39:10.695Z,9.91
2019-04-10T03:41:42.355Z,10.01
2019-04-10T03:44:14.519Z,10.01
2019-04-10T03:46:46.960Z,10.21
2019-04-10T03:49:19.910Z,10.38
2019-04-10T03:51:52.585Z,10.39
2019-04-10T03:54:24.258Z,10.69
2019-04-10T03:56:56.249Z,10.88
2019-04-10T03:59:28.546Z,10.93
2019-04-10T04:02:00.206Z,10.93
2019-04-10T04:04:31.799Z,10.82
2019-04-10T04:07:03.351Z,10.96
2019-04-10T04:09:35.652Z,11.05
2019-04-10T04:12:08.372Z,11.05
2019-04-10T04:14:40.860Z,11.27
2019-04-10T04:17:12.308Z,11.25
2019-04-10T04:19:43.736Z,11.54
2019-04-10T04:22:15.236Z,11.90
2019-04-10T04:24:46.682Z,12.21
2019-04-10T04:27:18.921Z,12.30
2019-04-10T04:29:51.941Z,12.74
2019-04-10T04:32:23.809Z,12.92
2019-04-10T04:34:56.330Z,12.95
2019-04-10T04:37:28.030Z,13.23
2019-04-10T04:40:00.611Z,13.20
2019-04-10T04:42:32.980Z,13.40
2019-04-10T04:45:05.449Z,13.53
2019-04-10T04:47:37.105Z,13.38
2019-04-10T04:50:09.686Z,13.51
2019-04-10T04:52:41.403Z,12.83
2019-04-10T04:55:12.935Z,13.59
2019-04-10T04:57:45.039Z,13.33
2019-04-10T05:00:17.371Z,13.77
2019-04-10T05:02:49.341Z,14.29
2019-04-10T05:05:21.005Z,14.56
2019-04-10T05:07:59.318Z,14.37
2019-04-10T05:10:25.760Z,14.01
2019-04-10T05:12:57.842Z,13.95
2019-04-10T05:15:29.397Z,14.62
2019-04-10T05:18:02.003Z,15.36
2019-04-10T05:20:43.951Z,15.09
2019-04-10T05:23:10.350Z,15.33
2019-04-10T05:25:41.998Z,15.62
2019-04-10T05:28:15.216Z,15.94
2019-04-10T05:30:47.002Z,15.90
2019-04-10T05:33:18.693Z,17.43
2019-04-10T05:35:50.865Z,18.58
2019-04-10T05:38:22.857Z,19.56
2019-04-10T05:40:55.188Z,20.11
2019-04-10T05:43:26.858Z,20.21
2019-04-10T05:45:59.271Z,21.62
2019-04-10T05:48:31.534Z,22.58
2019-04-10T05:51:05.729Z,23.10
2019-04-10T05:53:36.558Z,21.58
2019-04-10T05:56:08.225Z,23.71
2019-04-10T05:58:40.768Z,24.20
2019-04-10T06:01:13.506Z,23.68
2019-04-10T06:03:45.748Z,21.01
2019-04-10T06:06:17.495Z,23.61
2019-04-10T06:08:51.075Z,23.59
2019-04-10T06:11:22.689Z,24.26
2019-04-10T06:13:54.300Z,23.56
2019-04-10T06:16:26.149Z,24.49
2019-04-10T06:18:58.000Z,23.89
2019-04-10T06:21:29.929Z,24.15
2019-04-10T06:24:01.535Z,24.88
2019-04-10T06:26:32.982Z,21.66
2019-04-10T06:29:04.588Z,18.83
2019-04-10T06:31:36.799Z,16.46
2019-04-10T06:34:08.904Z,16.10
2019-04-10T06:36:41.709Z,15.09
2019-04-10T06:39:13.246Z,15.16
2019-04-10T06:41:44.889Z,15.34
2019-04-10T06:44:17.425Z,15.08
2019-04-10T06:46:49.405Z,14.94
2019-04-10T06:49:20.945Z,15.19
2019-04-10T06:51:53.463Z,15.47
2019-04-10T06:54:25.108Z,15.65
2019-04-10T06:56:56.646Z,15.80
2019-04-10T06:59:28.389Z,15.92
2019-04-10T07:02:13.045Z,16.02
2019-04-10T07:04:45.019Z,15.94
2019-04-10T07:07:11.291Z,16.12
2019-04-10T07:09:40.025Z,16.10
2019-04-10T07:12:12.190Z,16.27
2019-04-10T07:14:47.652Z,16.45
2019-04-10T07:17:17.985Z,16.41
2019-04-10T07:19:49.610Z,16.59
2019-04-10T07:22:21.286Z,16.82
2019-04-10T07:24:52.763Z,16.89
2019-04-10T07:27:24.358Z,16.95
2019-04-10T07:29:59.424Z,17.03
2019-04-10T07:32:30.102Z,17.10
2019-04-10T07:35:03.026Z,17.00
2019-04-10T07:37:36.011Z,17.16
2019-04-10T07:40:08.442Z,17.12
2019-04-10T07:42:41.906Z,17.12
2019-04-10T07:45:14.082Z,17.19
2019-04-10T07:47:46.215Z,17.28
2019-04-10T07:50:18.517Z,17.28
2019-04-10T07:52:50.173Z,17.38
2019-04-10T07:55:22.802Z,17.48
2019-04-10T07:57:55.287Z,17.54
2019-04-10T08:00:27.136Z,17.75
2019-04-10T08:02:59.730Z,17.90
2019-04-10T08:05:31.315Z,18.04
2019-04-10T08:08:03.056Z,18.09
2019-04-10T08:10:34.886Z,17.92
2019-04-10T08:13:06.571Z,17.97
2019-04-10T08:15:38.134Z,18.25
2019-04-10T08:18:10.113Z,18.33
2019-04-10T08:20:42.496Z,18.47
2019-04-10T08:23:14.171Z,18.66
2019-04-10T08:25:45.812Z,18.77
2019-04-10T08:28:17.796Z,18.86
2019-04-10T08:30:50.404Z,18.91
2019-04-10T08:33:22.271Z,18.99
2019-04-10T08:35:54.785Z,19.20
2019-04-10T08:38:28.025Z,19.16
2019-04-10T08:41:00.640Z,19.18
2019-04-10T08:43:32.448Z,19.55
2019-04-10T08:46:05.253Z,19.77
2019-04-10T08:48:37.000Z,19.88
2019-04-10T08:51:08.710Z,19.83
2019-04-10T08:53:40.412Z,20.02
2019-04-10T08:56:12.894Z,20.20
2019-04-10T08:58:45.603Z,20.15
2019-04-10T09:01:17.457Z,20.21
2019-04-10T09:03:49.181Z,20.26
2019-04-10T09:06:20.786Z,20.30
2019-04-10T09:08:53.056Z,20.48
2019-04-10T09:11:28.423Z,20.60
2019-04-10T09:13:58.901Z,20.67
2019-04-10T09:16:31.018Z,20.53
2019-04-10T09:19:03.499Z,20.57
2019-04-10T09:21:35.118Z,20.62
2019-04-10T09:24:06.709Z,20.64
2019-04-10T09:26:38.318Z,20.70
2019-04-10T09:29:09.805Z,20.78
2019-04-10T09:31:41.905Z,20.99
2019-04-10T09:34:14.372Z,21.15
2019-04-10T09:36:45.823Z,21.27
2019-04-10T09:39:17.530Z,21.32
2019-04-10T09:41:50.121Z,21.45
2019-04-10T09:44:22.839Z,21.58
2019-04-10T09:46:54.338Z,21.70
2019-04-10T09:49:35.703Z,21.81
2019-04-10T09:51:58.698Z,21.89
2019-04-10T09:54:31.404Z,22.00
2019-04-10T09:57:03.350Z,22.18
2019-04-10T09:59:36.977Z,22.33
2019-04-10T10:02:09.122Z,22.41
2019-04-10T10:04:41.905Z,22.25
2019-04-10T10:07:14.424Z,22.43
2019-04-10T10:09:47.186Z,22.56
2019-04-10T10:12:18.761Z,22.71
2019-04-10T10:14:50.442Z,22.95
2019-04-10T10:17:22.430Z,23.04
2019-04-10T10:19:53.929Z,23.27
2019-04-10T10:22:25.370Z,23.27
2019-04-10T10:24:57.809Z,23.38
2019-04-10T10:27:30.130Z,23.58
2019-04-10T10:30:02.188Z,23.60
2019-04-10T10:32:35.158Z,23.48
2019-04-10T10:35:07.828Z,23.44
2019-04-10T10:37:39.186Z,23.42
2019-04-10T10:40:11.795Z,23.29
2019-04-10T10:42:43.535Z,23.13
2019-04-10T10:45:15.824Z,23.22
2019-04-10T10:47:47.176Z,23.21
2019-04-10T10:50:19.257Z,23.47
2019-04-10T10:52:50.758Z,23.33
2019-04-10T10:55:23.291Z,23.05
2019-04-10T10:57:55.449Z,22.98
2019-04-10T11:00:27.241Z,23.04
2019-04-10T11:02:58.730Z,23.18
2019-04-10T11:05:31.835Z,23.23
2019-04-10T11:08:05.264Z,23.39
2019-04-10T11:10:36.900Z,23.30
2019-04-10T11:13:08.839Z,23.49
2019-04-10T11:15:42.721Z,23.34
2019-04-10T11:18:13.899Z,23.61
2019-04-10T11:20:45.344Z,23.56
2019-04-10T11:23:18.135Z,23.77
2019-04-10T11:25:50.362Z,23.85
2019-04-10T11:28:22.261Z,24.06
2019-04-10T11:30:56.103Z,23.87
2019-04-10T11:36:09.750Z,23.99
2019-04-10T11:38:44.948Z,23.80
2019-04-10T11:41:18.925Z,23.77
2019-04-10T11:43:50.128Z,23.72
2019-04-10T11:46:22.776Z,23.83
2019-04-10T11:48:55.603Z,23.79
2019-04-10T11:54:02.232Z,23.76
2019-04-10T11:56:35.651Z,23.85
2019-04-10T11:59:09.188Z,23.89
2019-04-10T12:01:40.156Z,23.79
2019-04-10T12:04:11.586Z,23.78
2019-04-10T12:06:46.621Z,23.78
2019-04-10T12:10:01.937Z,24.06
2019-04-10T12:11:50.398Z,24.24
2019-04-10T12:14:21.860Z,24.32
2019-04-10T12:16:53.576Z,24.42
2019-04-10T12:19:25.230Z,24.33
2019-04-10T12:21:56.580Z,24.18
2019-04-10T12:24:28.065Z,24.53
2019-04-10T12:27:00.422Z,24.30
2019-04-10T12:29:33.014Z,24.29
2019-04-10T12:32:04.593Z,24.20
2019-04-10T12:34:36.214Z,24.28
2019-04-10T12:37:08.917Z,24.05
2019-04-10T12:39:41.220Z,24.14
2019-04-10T12:42:12.948Z,24.04
2019-04-10T12:44:44.315Z,23.98
2019-04-10T12:47:16.006Z,24.06
2019-04-10T12:49:47.732Z,24.17
2019-04-10T12:52:20.679Z,24.19
2019-04-10T12:54:51.959Z,24.34
2019-04-10T12:57:23.569Z,24.43
2019-04-10T13:00:00.699Z,24.36
2019-04-10T13:02:28.181Z,24.14
2019-04-10T13:04:59.505Z,23.85
2019-04-10T13:07:31.680Z,23.52
2019-04-10T13:10:04.516Z,23.31
2019-04-10T13:12:35.957Z,23.12
2019-04-10T13:15:08.245Z,23.24
2019-04-10T13:17:40.750Z,23.36
2019-04-10T13:20:13.600Z,23.48
2019-04-10T13:22:45.094Z,23.51
2019-04-10T13:25:16.470Z,23.51
2019-04-10T13:27:47.917Z,23.57
2019-04-10T13:30:19.318Z,23.48
2019-04-10T13:32:51.907Z,23.58
2019-04-10T13:35:24.111Z,23.74
2019-04-10T13:37:56.860Z,23.71
2019-04-10T13:40:28.389Z,23.89
2019-04-10T13:43:01.209Z,24.02
2019-04-10T13:45:32.833Z,24.16
2019-04-10T13:48:04.211Z,24.33
2019-04-10T13:50:35.599Z,24.22
2019-04-10T13:53:07.937Z,24.38
2019-04-10T13:55:40.097Z,24.29
2019-04-10T13:58:11.564Z,24.08
2019-04-10T14:00:43.553Z,23.91
2019-04-10T14:03:15.057Z,20.44
2019-04-10T14:05:47.634Z,18.30
2019-04-10T14:08:19.366Z,17.88
2019-04-10T14:10:50.927Z,18.20
2019-04-10T14:13:24.093Z,17.79
2019-04-10T14:15:56.082Z,17.89
2019-04-10T14:18:27.653Z,17.98
2019-04-10T14:20:59.594Z,17.79
2019-04-10T14:23:31.464Z,18.28
2019-04-10T14:26:04.507Z,18.13
2019-04-10T14:28:37.523Z,17.95
2019-04-10T14:31:13.930Z,18.04
2019-04-10T14:33:46.902Z,18.15
2019-04-10T14:36:18.371Z,18.06
2019-04-10T14:38:52.561Z,18.05
2019-04-10T14:41:24.812Z,18.07
2019-04-10T14:44:00.393Z,18.54
2019-04-10T14:46:31.936Z,18.49
2019-04-10T14:49:03.383Z,18.40
2019-04-10T14:51:36.591Z,18.31
2019-04-10T14:54:09.693Z,18.37
2019-04-10T14:56:42.059Z,18.76
2019-04-10T14:59:15.742Z,18.43
2019-04-10T15:01:48.357Z,18.30
2019-04-10T15:04:19.765Z,18.61
2019-04-10T15:06:51.360Z,18.74
2019-04-10T15:09:25.984Z,18.76
2019-04-10T15:11:57.355Z,18.82
2019-04-10T15:14:29.868Z,18.74
2019-04-10T15:17:04.801Z,18.84
2019-04-10T15:19:36.418Z,18.86
2019-04-10T15:22:08.054Z,18.99
2019-04-10T15:24:39.770Z,19.20
2019-04-10T15:27:11.308Z,19.38
2019-04-10T15:29:43.048Z,19.31
2019-04-10T15:32:15.117Z,19.09
2019-04-10T15:34:46.762Z,19.02
2019-04-10T15:37:18.200Z,18.91
2019-04-10T15:39:49.901Z,18.91
2019-04-10T15:42:21.791Z,18.85
2019-04-10T15:44:54.506Z,18.80
2019-04-10T15:47:26.788Z,18.79
2019-04-10T15:49:58.482Z,18.73
2019-04-10T15:52:31.312Z,18.70
2019-04-10T15:55:03.740Z,18.69
2019-04-10T15:57:47.000Z,18.63
2019-04-10T16:00:10.805Z,18.66
2019-04-10T16:02:42.644Z,18.65
2019-04-10T16:05:15.446Z,18.70
2019-04-10T16:07:47.244Z,18.70
2019-04-10T16:10:30.728Z,18.64
2019-04-10T16:13:17.244Z,18.65
2019-04-10T16:15:48.820Z,18.56
2019-04-10T16:18:23.087Z,18.58
2019-04-10T16:20:55.611Z,18.52
2019-04-10T16:23:31.439Z,18.45
2019-04-10T16:26:03.477Z,18.42
2019-04-10T16:28:35.536Z,18.42
2019-04-10T16:31:07.648Z,18.41
2019-04-10T16:33:39.236Z,18.34
2019-04-10T16:36:11.304Z,18.32
2019-04-10T16:38:42.865Z,18.17
2019-04-10T16:41:14.537Z,18.17
2019-04-10T16:43:46.679Z,18.14
2019-04-10T16:46:20.297Z,18.08
2019-04-10T16:48:52.553Z,18.06
2019-04-10T16:51:24.158Z,18.02
2019-04-10T16:53:56.906Z,17.98
2019-04-10T16:56:29.679Z,17.93
2019-04-10T16:59:02.446Z,17.91
2019-04-10T17:01:35.037Z,17.85
2019-04-10T17:04:07.090Z,17.80
2019-04-10T17:06:38.806Z,17.74
2019-04-10T17:09:12.307Z,17.65
2019-04-10T17:11:45.210Z,17.57
2019-04-10T17:14:17.795Z,17.59
2019-04-10T17:16:50.312Z,17.52
2019-04-10T17:19:21.919Z,17.35
2019-04-10T17:21:54.267Z,17.23
2019-04-10T17:24:25.993Z,17.21
2019-04-10T17:26:57.544Z,17.27
2019-04-10T17:29:29.423Z,17.26
2019-04-10T17:32:00.974Z,17.26
2019-04-10T17:34:32.782Z,17.20
2019-04-10T17:37:05.448Z,17.13
2019-04-10T17:39:37.650Z,17.11
2019-04-10T17:42:10.182Z,17.08
2019-04-10T17:44:42.191Z,17.09
2019-04-10T17:47:14.465Z,17.05
2019-04-10T17:49:46.195Z,16.99
2019-04-10T17:52:18.738Z,16.77
2019-04-10T17:54:51.264Z,16.47
2019-04-10T17:57:34.498Z,16.44
2019-04-10T17:59:56.658Z,16.40
2019-04-10T18:02:28.375Z,16.40
2019-04-10T18:05:00.242Z,16.55
2019-04-10T18:07:32.286Z,16.49
2019-04-10T18:10:05.049Z,16.46
2019-04-10T18:12:38.430Z,16.40
2019-04-10T18:15:09.987Z,16.35
2019-04-10T18:17:42.687Z,16.39
2019-04-10T18:20:15.700Z,16.34
2019-04-10T18:22:47.493Z,16.32
2019-04-10T18:25:20.085Z,16.32
2019-04-10T18:27:52.474Z,16.30
2019-04-10T18:30:25.198Z,16.27
2019-04-10T18:32:58.081Z,16.25
2019-04-10T18:35:30.861Z,16.25
2019-04-10T18:38:03.583Z,16.30
2019-04-10T18:40:35.429Z,16.20
2019-04-10T18:43:07.709Z,16.18
2019-04-10T18:45:42.080Z,16.16
2019-04-10T18:48:12.846Z,16.15
2019-04-10T18:50:45.425Z,16.00
2019-04-10T18:53:17.228Z,16.06
2019-04-10T18:55:48.956Z,16.01
2019-04-10T18:58:28.219Z,15.99
2019-04-10T19:01:07.695Z,15.91
2019-04-10T19:03:50.264Z,15.90
2019-04-10T19:06:26.723Z,15.91
2019-04-10T19:09:06.182Z,15.92
2019-04-10T19:11:35.736Z,15.79
2019-04-10T19:14:08.207Z,15.87
2019-04-10T19:16:40.179Z,15.78
2019-04-10T19:19:12.455Z,15.67
2019-04-10T19:21:44.258Z,15.68
2019-04-10T19:24:16.124Z,15.55
2019-04-10T19:26:47.923Z,15.58
2019-04-10T19:29:19.736Z,15.59
2019-04-10T19:31:54.148Z,15.59
2019-04-10T19:34:27.460Z,15.54
2019-04-10T19:37:00.560Z,15.57
2019-04-10T19:39:32.584Z,15.59
2019-04-10T19:42:05.362Z,15.58
2019-04-10T19:44:37.529Z,15.61
2019-04-10T19:47:10.394Z,15.66
2019-04-10T19:49:42.704Z,15.59
2019-04-10T19:52:14.519Z,15.65
2019-04-10T19:54:47.249Z,15.75
2019-04-10T19:57:19.370Z,15.62
2019-04-10T19:59:52.243Z,15.56
2019-04-10T20:02:24.656Z,15.52
2019-04-10T20:04:57.002Z,15.41
2019-04-10T20:07:29.200Z,15.47
2019-04-10T20:10:19.297Z,15.39
2019-04-10T20:12:51.187Z,15.31
2019-04-10T20:15:23.020Z,15.36
2019-04-10T20:17:54.933Z,15.29
2019-04-10T20:20:27.192Z,15.27
2019-04-10T20:22:59.469Z,15.28
2019-04-10T20:25:32.508Z,15.06
2019-04-10T20:28:04.713Z,15.05
2019-04-10T20:30:37.692Z,15.09
2019-04-10T20:33:10.454Z,14.92
2019-04-10T20:35:42.591Z,14.92
2019-04-10T20:38:15.448Z,14.87
2019-04-10T20:40:47.340Z,14.90
2019-04-10T20:43:19.022Z,14.87
2019-04-10T20:45:50.863Z,14.80
2019-04-10T20:48:22.560Z,14.76
2019-04-10T20:50:54.455Z,14.76
2019-04-10T20:53:26.273Z,14.80
2019-04-10T20:55:57.855Z,14.68
2019-04-10T20:58:29.507Z,14.57
2019-04-10T21:01:01.095Z,14.63
2019-04-10T21:03:33.828Z,14.56
2019-04-10T21:06:06.846Z,14.61
2019-04-10T21:08:38.476Z,14.49
2019-04-10T21:11:10.016Z,14.41
2019-04-10T21:13:42.541Z,14.38
2019-04-10T21:16:14.210Z,14.30
2019-04-10T21:18:46.253Z,14.33
2019-04-10T21:21:18.580Z,14.34
2019-04-10T21:23:50.135Z,14.21
2019-04-10T21:26:21.992Z,14.25
2019-04-10T21:28:53.735Z,14.24
2019-04-10T21:31:42.780Z,14.12
2019-04-10T21:34:23.035Z,14.19
2019-04-10T21:36:54.749Z,14.12
2019-04-10T21:39:26.300Z,14.17
2019-04-10T21:42:11.077Z,14.17
2019-04-10T21:44:31.494Z,14.09
2019-04-10T21:47:03.474Z,14.04
2019-04-10T21:49:35.919Z,14.06
2019-04-10T21:52:09.777Z,14.07
2019-04-10T21:54:49.631Z,13.97
2019-04-10T21:57:14.571Z,13.86
2019-04-10T21:59:46.180Z,13.87
2019-04-10T22:02:17.854Z,13.97
2019-04-10T22:04:49.815Z,13.86
2019-04-10T22:07:23.835Z,13.91
2019-04-10T22:10:00.080Z,13.90
2019-04-10T22:12:38.982Z,13.97
2019-04-10T22:15:08.683Z,13.77
2019-04-10T22:17:40.472Z,13.74
2019-04-10T22:20:12.846Z,13.86
2019-04-10T22:22:44.996Z,13.75
2019-04-10T22:25:16.698Z,13.68
2019-04-10T22:27:48.449Z,13.68
2019-04-10T22:30:21.042Z,13.67
2019-04-10T22:32:53.428Z,13.65
2019-04-10T22:35:26.437Z,13.47
2019-04-10T22:37:58.139Z,13.44
2019-04-10T22:40:31.171Z,13.53
2019-04-10T22:43:03.393Z,13.57
2019-04-10T22:45:36.051Z,13.68
2019-04-10T22:48:08.358Z,13.64
2019-04-10T22:50:39.991Z,13.59
2019-04-10T22:53:11.546Z,13.57
2019-04-10T22:55:44.428Z,13.58
2019-04-10T22:58:17.082Z,13.57
2019-04-10T23:00:48.829Z,13.52
2019-04-10T23:03:20.522Z,13.53
2019-04-10T23:05:53.088Z,13.50
2019-04-10T23:08:25.344Z,13.57
2019-04-10T23:10:57.350Z,13.41
2019-04-10T23:13:30.114Z,13.27
2019-04-10T23:16:02.015Z,13.25
2019-04-10T23:18:34.612Z,13.32
2019-04-10T23:21:06.211Z,13.35
2019-04-10T23:23:38.958Z,13.31
2019-04-10T23:26:11.121Z,13.31
2019-04-10T23:28:42.698Z,13.30
2019-04-10T23:31:15.195Z,13.30
2019-04-10T23:33:48.274Z,13.31
2019-04-10T23:36:20.250Z,13.38
2019-04-10T23:38:52.791Z,13.45
2019-04-10T23:41:25.344Z,13.50
2019-04-10T23:43:57.142Z,13.51
2019-04-10T23:46:28.703Z,13.53
2019-04-10T23:49:01.331Z,13.50
2019-04-10T23:51:33.491Z,13.48
2019-04-10T23:54:04.973Z,13.48
2019-04-10T23:56:36.495Z,13.50
2019-04-10T23:59:08.718Z,13.49
